createdAt,value
2018-09-15T00:01:38.176Z,20.26
2018-09-15T00:04:06.938Z,20.18
2018-09-15T00:06:35.552Z,20.09
2018-09-15T00:09:04.695Z,20.00
2018-09-15T00:11:33.277Z,19.90
2018-09-15T00:14:16.149Z,19.82
2018-09-15T00:16:44.819Z,19.73
2018-09-15T00:19:13.422Z,19.64
2018-09-15T00:21:42.044Z,19.57
2018-09-15T00:24:10.609Z,19.51
2018-09-15T00:26:39.154Z,19.44
2018-09-15T00:29:07.709Z,19.36
2018-09-15T00:31:36.249Z,19.12
2018-09-15T00:34:04.873Z,19.21
2018-09-15T00:36:33.475Z,19.15
2018-09-15T00:39:02.166Z,19.09
2018-09-15T00:41:30.614Z,19.04
2018-09-15T00:43:59.233Z,18.99
2018-09-15T00:46:27.801Z,18.95
2018-09-15T00:48:56.436Z,18.90
2018-09-15T00:51:25.117Z,18.85
2018-09-15T00:53:53.692Z,18.80
2018-09-15T00:56:22.277Z,18.74
2018-09-15T00:58:50.851Z,18.70
2018-09-15T01:01:19.397Z,18.65
2018-09-15T01:03:47.974Z,18.61
2018-09-15T01:06:16.651Z,18.56
2018-09-15T01:08:45.197Z,18.51
2018-09-15T01:11:13.764Z,18.45
2018-09-15T01:13:42.426Z,18.40
2018-09-15T01:16:11.715Z,18.37
2018-09-15T01:18:40.376Z,18.32
2018-09-15T01:21:09.095Z,18.27
2018-09-15T01:23:37.744Z,18.22
2018-09-15T01:26:06.399Z,18.17
2018-09-15T01:28:34.927Z,18.14
2018-09-15T01:31:03.432Z,18.09
2018-09-15T01:33:32.094Z,18.07
2018-09-15T01:36:00.634Z,18.06
2018-09-15T01:38:29.313Z,18.01
2018-09-15T01:40:57.861Z,17.98
2018-09-15T01:43:26.443Z,17.96
2018-09-15T01:45:55.025Z,17.93
2018-09-15T01:48:23.739Z,17.92
2018-09-15T01:50:52.235Z,17.91
2018-09-15T01:53:20.790Z,17.88
2018-09-15T01:55:49.384Z,17.88
2018-09-15T01:58:17.998Z,17.90
2018-09-15T02:00:46.523Z,17.90
2018-09-15T02:03:15.115Z,17.89
2018-09-15T02:05:43.772Z,17.89
2018-09-15T02:08:12.597Z,17.88
2018-09-15T02:10:41.147Z,17.87
2018-09-15T02:13:09.720Z,17.88
2018-09-15T02:15:38.238Z,17.86
2018-09-15T02:18:07.083Z,17.85
2018-09-15T02:20:36.082Z,17.82
2018-09-15T02:23:04.954Z,17.81
2018-09-15T02:25:33.798Z,17.79
2018-09-15T02:28:02.869Z,17.77
2018-09-15T02:30:31.828Z,17.77
2018-09-15T02:33:00.934Z,17.75
2018-09-15T02:35:29.877Z,17.74
2018-09-15T02:37:58.746Z,17.72
2018-09-15T02:40:27.564Z,17.70
2018-09-15T02:42:56.679Z,17.67
2018-09-15T02:45:25.363Z,17.65
2018-09-15T02:47:54.695Z,17.65
2018-09-15T02:50:23.397Z,17.63
2018-09-15T02:52:52.237Z,17.60
2018-09-15T02:55:21.068Z,17.61
2018-09-15T02:57:49.852Z,17.60
2018-09-15T03:00:18.477Z,17.60
2018-09-15T03:02:47.246Z,17.59
2018-09-15T03:05:15.951Z,17.57
2018-09-15T03:07:44.619Z,17.55
2018-09-15T03:10:13.519Z,17.56
2018-09-15T03:12:42.388Z,17.55
2018-09-15T03:15:11.296Z,17.54
2018-09-15T03:17:40.408Z,17.51
2018-09-15T03:20:09.259Z,17.52
2018-09-15T03:22:37.959Z,17.50
2018-09-15T03:25:06.713Z,17.52
2018-09-15T03:27:35.476Z,17.49
2018-09-15T03:30:04.240Z,17.48
2018-09-15T03:32:33.152Z,17.48
2018-09-15T03:35:01.963Z,17.48
2018-09-15T03:37:30.655Z,17.49
2018-09-15T03:39:59.392Z,17.48
2018-09-15T03:42:28.185Z,17.46
2018-09-15T03:44:57.044Z,17.47
2018-09-15T03:47:28.131Z,17.46
2018-09-15T03:49:57.146Z,17.45
2018-09-15T03:52:25.790Z,17.44
2018-09-15T03:54:54.627Z,17.43
2018-09-15T03:57:23.568Z,17.44
2018-09-15T03:59:52.522Z,17.44
2018-09-15T04:02:21.215Z,17.45
2018-09-15T04:04:50.103Z,17.47
2018-09-15T04:07:19.019Z,17.47
2018-09-15T04:09:47.755Z,17.48
2018-09-15T04:12:16.708Z,17.48
2018-09-15T04:14:45.548Z,17.47
2018-09-15T04:17:14.556Z,17.45
2018-09-15T04:19:43.472Z,17.45
2018-09-15T04:22:12.360Z,17.46
2018-09-15T04:24:41.280Z,17.47
2018-09-15T04:27:10.061Z,17.47
2018-09-15T04:29:38.940Z,17.49
2018-09-15T04:32:07.715Z,17.51
2018-09-15T04:34:36.546Z,17.55
2018-09-15T04:37:05.426Z,17.61
2018-09-15T04:39:34.583Z,17.67
2018-09-15T04:42:03.343Z,16.80
2018-09-15T04:44:32.260Z,17.76
2018-09-15T04:47:01.049Z,17.81
2018-09-15T04:49:29.881Z,17.82
2018-09-15T04:51:58.692Z,17.83
2018-09-15T04:54:27.535Z,17.84
2018-09-15T04:56:56.207Z,17.85
2018-09-15T04:59:25.000Z,17.86
2018-09-15T05:01:53.824Z,17.89
2018-09-15T05:04:22.828Z,17.89
2018-09-15T05:06:51.721Z,17.88
2018-09-15T05:09:20.624Z,17.90
2018-09-15T05:11:49.337Z,17.89
2018-09-15T05:14:18.138Z,17.93
2018-09-15T05:16:46.933Z,17.95
2018-09-15T05:19:15.869Z,17.96
2018-09-15T05:21:44.652Z,18.01
2018-09-15T05:24:13.329Z,18.04
2018-09-15T05:26:42.218Z,17.14
2018-09-15T05:29:11.276Z,18.13
2018-09-15T05:31:40.033Z,18.17
2018-09-15T05:34:08.678Z,18.23
2018-09-15T05:36:37.522Z,18.28
2018-09-15T05:39:09.126Z,18.32
2018-09-15T05:41:38.101Z,18.38
2018-09-15T05:44:06.811Z,18.44
2018-09-15T05:46:35.486Z,18.51
2018-09-15T05:49:04.170Z,18.55
2018-09-15T05:51:33.194Z,18.59
2018-09-15T05:54:01.951Z,18.56
2018-09-15T05:56:30.664Z,18.55
2018-09-15T05:58:59.450Z,18.55
2018-09-15T06:01:28.201Z,18.54
2018-09-15T06:03:56.928Z,18.55
2018-09-15T06:06:25.633Z,18.56
2018-09-15T06:08:54.353Z,18.52
2018-09-15T06:11:23.049Z,18.51
2018-09-15T06:13:51.809Z,18.58
2018-09-15T06:16:20.565Z,18.88
2018-09-15T06:18:49.359Z,19.39
2018-09-15T06:21:18.109Z,19.85
2018-09-15T06:23:46.829Z,20.27
2018-09-15T06:26:16.120Z,20.64
2018-09-15T06:28:45.373Z,20.94
2018-09-15T06:31:14.318Z,21.33
2018-09-15T06:33:43.103Z,21.83
2018-09-15T06:36:12.088Z,22.22
2018-09-15T06:38:41.424Z,22.61
2018-09-15T06:41:10.660Z,22.92
2018-09-15T06:43:39.265Z,23.26
2018-09-15T06:46:07.932Z,23.51
2018-09-15T06:48:36.414Z,23.79
2018-09-15T06:51:05.700Z,24.10
2018-09-15T06:53:39.081Z,24.46
2018-09-15T06:56:07.880Z,24.82
2018-09-15T06:58:36.471Z,24.80
2018-09-15T07:01:05.071Z,24.75
2018-09-15T07:03:33.621Z,24.61
2018-09-15T07:06:02.221Z,24.53
2018-09-15T07:08:30.826Z,24.42
2018-09-15T07:10:59.403Z,24.45
2018-09-15T07:13:27.997Z,24.78
2018-09-15T07:15:56.519Z,25.06
2018-09-15T07:18:24.957Z,25.12
2018-09-15T07:20:53.567Z,24.95
2018-09-15T07:23:22.122Z,24.60
2018-09-15T07:25:50.764Z,24.18
2018-09-15T07:28:19.774Z,23.86
2018-09-15T07:30:48.496Z,23.60
2018-09-15T07:33:17.142Z,22.99
2018-09-15T07:35:45.658Z,23.67
2018-09-15T07:38:14.567Z,24.13
2018-09-15T07:40:43.193Z,24.93
2018-09-15T07:43:11.742Z,25.84
2018-09-15T07:45:40.499Z,26.46
2018-09-15T07:48:09.108Z,27.54
2018-09-15T07:50:37.807Z,28.11
2018-09-15T07:53:06.375Z,28.17
2018-09-15T07:55:35.324Z,27.91
2018-09-15T07:58:03.925Z,27.44
2018-09-15T08:00:32.745Z,27.16
2018-09-15T08:03:01.394Z,27.34
2018-09-15T08:05:30.155Z,27.23
2018-09-15T08:07:58.800Z,26.98
2018-09-15T08:10:27.386Z,26.75
2018-09-15T08:12:55.906Z,26.58
2018-09-15T08:15:24.484Z,27.04
2018-09-15T08:17:53.206Z,27.91
2018-09-15T08:20:21.875Z,28.32
2018-09-15T08:22:50.542Z,28.72
2018-09-15T08:25:19.120Z,29.05
2018-09-15T08:27:47.840Z,29.28
2018-09-15T08:30:16.610Z,30.18
2018-09-15T08:32:45.326Z,31.25
2018-09-15T08:35:13.956Z,32.13
2018-09-15T08:37:42.766Z,32.93
2018-09-15T08:40:11.362Z,32.95
2018-09-15T08:42:40.114Z,32.32
2018-09-15T08:45:09.047Z,31.50
2018-09-15T08:47:37.640Z,30.67
2018-09-15T08:50:06.446Z,29.84
2018-09-15T08:52:35.216Z,29.07
2018-09-15T08:55:03.835Z,28.69
2018-09-15T08:57:32.374Z,29.14
2018-09-15T09:00:00.948Z,29.13
2018-09-15T09:02:29.517Z,28.95
2018-09-15T09:04:58.115Z,28.75
2018-09-15T09:07:26.677Z,28.41
2018-09-15T09:09:55.292Z,28.05
2018-09-15T09:12:23.863Z,27.76
2018-09-15T09:14:52.471Z,28.06
2018-09-15T09:17:21.131Z,29.64
2018-09-15T09:19:49.665Z,30.14
2018-09-15T09:22:18.324Z,29.88
2018-09-15T09:24:46.919Z,29.39
2018-09-15T09:27:15.699Z,28.93
2018-09-15T09:29:44.278Z,28.50
2018-09-15T09:32:12.876Z,28.14
2018-09-15T09:34:41.368Z,27.77
2018-09-15T09:37:10.037Z,27.41
2018-09-15T09:39:38.654Z,27.51
2018-09-15T09:42:07.202Z,28.43
2018-09-15T09:44:35.788Z,29.27
2018-09-15T09:47:08.300Z,29.79
2018-09-15T09:49:36.802Z,29.79
2018-09-15T09:52:05.695Z,29.71
2018-09-15T09:54:34.261Z,29.44
2018-09-15T09:57:02.851Z,29.11
2018-09-15T09:59:31.464Z,28.77
2018-09-15T10:02:32.321Z,28.41
2018-09-15T10:05:00.866Z,27.93
2018-09-15T10:07:29.481Z,27.52
2018-09-15T10:09:58.018Z,27.23
2018-09-15T10:12:26.591Z,26.95
2018-09-15T10:14:55.130Z,26.70
2018-09-15T10:17:23.772Z,26.42
2018-09-15T10:19:52.362Z,26.13
2018-09-15T10:22:20.996Z,25.88
2018-09-15T10:24:49.568Z,25.67
2018-09-15T10:27:18.103Z,25.38
2018-09-15T10:29:46.623Z,25.12
2018-09-15T10:32:15.182Z,24.88
2018-09-15T10:34:43.900Z,24.66
2018-09-15T10:37:12.622Z,24.46
2018-09-15T10:39:41.252Z,24.32
2018-09-15T10:42:09.711Z,24.20
2018-09-15T10:44:38.262Z,24.12
2018-09-15T10:47:06.778Z,24.08
2018-09-15T10:49:35.288Z,24.05
2018-09-15T10:52:03.855Z,24.08
2018-09-15T10:54:32.653Z,24.19
2018-09-15T10:57:01.389Z,24.44
2018-09-15T10:59:30.119Z,24.80
2018-09-15T11:01:59.014Z,26.36
2018-09-15T11:04:27.794Z,29.23
2018-09-15T11:06:56.482Z,32.22
2018-09-15T11:09:25.227Z,34.09
2018-09-15T11:11:53.813Z,33.90
2018-09-15T11:14:22.515Z,32.85
2018-09-15T11:16:51.183Z,31.78
2018-09-15T11:19:19.999Z,31.71
2018-09-15T11:21:48.641Z,31.83
2018-09-15T11:24:17.291Z,31.83
2018-09-15T11:26:45.861Z,31.31
2018-09-15T11:29:14.443Z,31.06
2018-09-15T11:31:43.015Z,31.73
2018-09-15T11:34:11.625Z,34.30
2018-09-15T11:36:40.300Z,36.79
2018-09-15T11:39:10.059Z,38.89
2018-09-15T11:41:38.532Z,40.63
2018-09-15T11:44:07.184Z,41.60
2018-09-15T11:46:35.800Z,42.32
2018-09-15T11:49:04.267Z,42.63
2018-09-15T11:51:32.897Z,42.61
2018-09-15T11:54:01.682Z,40.82
2018-09-15T11:56:30.167Z,39.14
2018-09-15T11:58:58.702Z,37.44
2018-09-15T12:01:27.227Z,36.03
2018-09-15T12:03:55.826Z,34.84
2018-09-15T12:06:24.323Z,33.89
2018-09-15T12:08:52.881Z,33.23
2018-09-15T12:11:21.382Z,32.74
2018-09-15T12:13:49.891Z,32.36
2018-09-15T12:16:18.341Z,32.03
2018-09-15T12:18:46.886Z,31.67
2018-09-15T12:21:15.426Z,31.39
2018-09-15T12:23:43.942Z,31.24
2018-09-15T12:26:12.455Z,31.11
2018-09-15T12:28:41.024Z,30.97
2018-09-15T12:31:09.483Z,30.80
2018-09-15T12:33:38.008Z,30.62
2018-09-15T12:36:06.554Z,30.59
2018-09-15T12:38:34.992Z,30.49
2018-09-15T12:41:07.222Z,30.31
2018-09-15T12:43:35.673Z,30.00
2018-09-15T12:46:04.155Z,29.61
2018-09-15T12:48:32.714Z,29.33
2018-09-15T12:51:01.243Z,29.13
2018-09-15T12:53:29.697Z,29.04
2018-09-15T12:55:58.286Z,29.05
2018-09-15T12:58:26.738Z,29.11
2018-09-15T13:00:55.242Z,29.11
2018-09-15T13:03:23.683Z,29.13
2018-09-15T13:05:52.131Z,29.13
2018-09-15T13:08:20.594Z,29.10
2018-09-15T13:10:49.069Z,29.06
2018-09-15T13:13:17.564Z,29.04
2018-09-15T13:15:46.062Z,29.04
2018-09-15T13:18:14.524Z,29.04
2018-09-15T13:20:43.083Z,28.96
2018-09-15T13:23:11.574Z,28.92
2018-09-15T13:25:40.061Z,28.75
2018-09-15T13:28:08.551Z,28.53
2018-09-15T13:30:37.125Z,28.35
2018-09-15T13:33:05.623Z,28.13
2018-09-15T13:35:34.318Z,27.92
2018-09-15T13:38:02.755Z,27.76
2018-09-15T13:40:31.288Z,27.62
2018-09-15T13:42:59.854Z,27.45
2018-09-15T13:45:28.430Z,27.30
2018-09-15T13:47:56.881Z,27.17
2018-09-15T13:50:25.335Z,27.12
2018-09-15T13:52:53.790Z,27.03
2018-09-15T13:55:22.237Z,26.96
2018-09-15T13:57:50.712Z,26.92
2018-09-15T14:00:19.818Z,26.86
2018-09-15T14:02:48.322Z,26.79
2018-09-15T14:05:16.852Z,26.70
2018-09-15T14:07:45.353Z,26.60
2018-09-15T14:10:19.012Z,26.49
2018-09-15T14:12:42.366Z,26.40
2018-09-15T14:15:10.819Z,26.30
2018-09-15T14:17:39.267Z,26.19
2018-09-15T14:20:07.669Z,26.11
2018-09-15T14:22:36.200Z,26.01
2018-09-15T14:25:04.597Z,25.89
2018-09-15T14:27:33.021Z,25.79
2018-09-15T14:30:01.497Z,25.71
2018-09-15T14:32:30.048Z,25.65
2018-09-15T14:34:58.577Z,25.57
2018-09-15T14:37:27.304Z,25.52
2018-09-15T14:39:55.784Z,25.53
2018-09-15T14:42:24.289Z,25.57
2018-09-15T14:44:52.716Z,25.65
2018-09-15T14:47:21.245Z,25.71
2018-09-15T14:49:49.841Z,25.79
2018-09-15T14:52:18.339Z,25.80
2018-09-15T14:54:46.947Z,25.78
2018-09-15T14:57:15.696Z,25.76
2018-09-15T14:59:44.490Z,25.76
2018-09-15T15:02:13.510Z,25.74
2018-09-15T15:04:42.093Z,25.72
2018-09-15T15:07:10.777Z,25.65
2018-09-15T15:09:39.455Z,25.60
2018-09-15T15:12:08.047Z,25.56
2018-09-15T15:14:36.500Z,25.53
2018-09-15T15:17:04.963Z,25.60
2018-09-15T15:19:33.484Z,25.67
2018-09-15T15:22:01.918Z,25.79
2018-09-15T15:24:30.391Z,25.95
2018-09-15T15:26:58.855Z,26.11
2018-09-15T15:29:27.460Z,26.24
2018-09-15T15:31:55.851Z,26.29
2018-09-15T15:34:24.307Z,26.30
2018-09-15T15:36:52.894Z,26.27
2018-09-15T15:39:21.444Z,26.15
2018-09-15T15:41:49.971Z,26.04
2018-09-15T15:44:18.485Z,25.92
2018-09-15T15:46:46.988Z,25.82
2018-09-15T15:49:15.550Z,25.72
2018-09-15T15:51:44.016Z,25.62
2018-09-15T15:54:12.778Z,25.55
2018-09-15T15:56:41.206Z,25.51
2018-09-15T15:59:09.815Z,25.47
2018-09-15T16:01:38.354Z,25.43
2018-09-15T16:04:06.889Z,25.40
2018-09-15T16:06:35.334Z,25.36
2018-09-15T16:09:05.079Z,25.35
2018-09-15T16:11:33.552Z,25.33
2018-09-15T16:14:02.082Z,25.29
2018-09-15T16:16:30.558Z,25.22
2018-09-15T16:18:59.056Z,25.16
2018-09-15T16:21:27.524Z,25.10
2018-09-15T16:23:56.029Z,25.05
2018-09-15T16:26:24.528Z,25.00
2018-09-15T16:28:53.089Z,24.93
2018-09-15T16:31:21.596Z,24.84
2018-09-15T16:33:50.057Z,24.76
2018-09-15T16:36:18.505Z,24.69
2018-09-15T16:38:47.083Z,24.64
2018-09-15T16:41:15.630Z,24.58
2018-09-15T16:43:44.191Z,24.55
2018-09-15T16:46:12.638Z,24.52
2018-09-15T16:48:41.077Z,24.45
2018-09-15T16:51:09.563Z,24.40
2018-09-15T16:53:38.039Z,24.32
2018-09-15T16:56:06.709Z,24.22
2018-09-15T16:58:35.225Z,24.18
2018-09-15T17:01:03.640Z,24.10
2018-09-15T17:03:32.147Z,24.02
2018-09-15T17:06:00.649Z,23.93
2018-09-15T17:08:29.332Z,23.85
2018-09-15T17:10:57.778Z,23.76
2018-09-15T17:13:26.291Z,23.68
2018-09-15T17:15:54.806Z,23.58
2018-09-15T17:18:23.261Z,23.51
2018-09-15T17:20:51.812Z,23.43
2018-09-15T17:23:20.421Z,23.35
2018-09-15T17:25:48.908Z,23.26
2018-09-15T17:28:17.358Z,23.17
2018-09-15T17:30:45.899Z,23.08
2018-09-15T17:33:14.339Z,22.99
2018-09-15T17:35:42.785Z,22.88
2018-09-15T17:38:11.232Z,22.81
2018-09-15T17:40:39.709Z,22.73
2018-09-15T17:43:08.159Z,22.65
2018-09-15T17:45:36.699Z,22.56
2018-09-15T17:48:05.620Z,22.47
2018-09-15T17:50:34.108Z,22.40
2018-09-15T17:53:02.628Z,22.32
2018-09-15T17:55:31.127Z,22.25
2018-09-15T17:57:59.682Z,22.18
2018-09-15T18:00:28.109Z,22.07
2018-09-15T18:02:56.616Z,21.97
2018-09-15T18:05:25.095Z,21.87
2018-09-15T18:07:53.579Z,21.81
2018-09-15T18:10:22.117Z,21.72
2018-09-15T18:12:50.697Z,21.64
2018-09-15T18:15:19.172Z,21.56
2018-09-15T18:17:47.590Z,21.50
2018-09-15T18:20:16.028Z,21.44
2018-09-15T18:22:44.442Z,21.40
2018-09-15T18:25:13.091Z,21.33
2018-09-15T18:27:41.520Z,21.28
2018-09-15T18:30:10.020Z,21.21
2018-09-15T18:32:38.433Z,21.16
2018-09-15T18:35:06.891Z,21.12
2018-09-15T18:37:35.451Z,21.06
2018-09-15T18:40:03.940Z,21.01
2018-09-15T18:42:32.450Z,20.95
2018-09-15T18:45:00.944Z,20.86
2018-09-15T18:47:29.371Z,20.81
2018-09-15T18:49:57.781Z,20.75
2018-09-15T18:52:26.222Z,20.68
2018-09-15T18:54:54.753Z,20.63
2018-09-15T18:57:23.196Z,20.58
2018-09-15T18:59:51.653Z,20.51
2018-09-15T19:02:20.143Z,20.46
2018-09-15T19:04:48.565Z,20.40
2018-09-15T19:07:17.079Z,20.32
2018-09-15T19:09:45.522Z,20.28
2018-09-15T19:12:13.954Z,20.24
2018-09-15T19:14:42.430Z,20.18
2018-09-15T19:17:10.823Z,20.11
2018-09-15T19:19:40.155Z,20.08
2018-09-15T19:22:08.786Z,20.04
2018-09-15T19:24:37.206Z,19.98
2018-09-15T19:27:05.696Z,19.93
2018-09-15T19:29:34.223Z,19.89
2018-09-15T19:32:02.683Z,19.85
2018-09-15T19:34:31.159Z,19.81
2018-09-15T19:36:59.583Z,19.78
2018-09-15T19:39:28.052Z,19.75
2018-09-15T19:41:56.564Z,19.72
2018-09-15T19:44:25.038Z,19.69
2018-09-15T19:46:53.488Z,19.67
2018-09-15T19:49:21.977Z,19.65
2018-09-15T19:51:50.442Z,19.63
2018-09-15T19:54:18.865Z,19.61
2018-09-15T19:56:47.329Z,19.61
2018-09-15T19:59:15.801Z,19.59
2018-09-15T20:01:44.214Z,19.57
2018-09-15T20:04:12.652Z,19.58
2018-09-15T20:06:41.152Z,19.55
2018-09-15T20:09:10.683Z,19.54
2018-09-15T20:11:39.186Z,19.52
2018-09-15T20:14:08.148Z,19.50
2018-09-15T20:16:35.405Z,19.49
2018-09-15T20:19:02.796Z,19.47
2018-09-15T20:21:30.043Z,19.46
2018-09-15T20:23:58.562Z,19.44
2018-09-15T20:26:27.072Z,19.42
2018-09-15T20:28:55.554Z,19.40
2018-09-15T20:31:24.047Z,19.38
2018-09-15T20:33:52.577Z,19.38
2018-09-15T20:36:21.088Z,19.37
2018-09-15T20:38:49.640Z,19.32
2018-09-15T20:41:18.124Z,19.29
2018-09-15T20:43:46.636Z,19.26
2018-09-15T20:46:15.116Z,19.21
2018-09-15T20:48:43.582Z,19.17
2018-09-15T20:51:12.217Z,19.16
2018-09-15T20:53:40.747Z,19.15
2018-09-15T20:56:09.314Z,19.14
2018-09-15T20:58:37.827Z,19.12
2018-09-15T21:01:06.383Z,19.10
2018-09-15T21:03:34.856Z,19.09
2018-09-15T21:06:03.675Z,19.07
2018-09-15T21:08:32.103Z,19.05
2018-09-15T21:11:00.593Z,19.01
2018-09-15T21:13:29.021Z,18.98
2018-09-15T21:15:57.495Z,18.90
2018-09-15T21:18:25.894Z,18.86
2018-09-15T21:20:54.310Z,18.81
2018-09-15T21:23:22.725Z,18.73
2018-09-15T21:25:51.157Z,18.69
2018-09-15T21:28:19.659Z,18.64
2018-09-15T21:30:48.098Z,18.62
2018-09-15T21:33:16.573Z,18.59
2018-09-15T21:35:44.983Z,18.56
2018-09-15T21:38:13.443Z,18.54
2018-09-15T21:40:41.866Z,18.53
2018-09-15T21:43:10.293Z,18.50
2018-09-15T21:45:38.699Z,18.48
2018-09-15T21:48:07.130Z,18.46
2018-09-15T21:50:35.584Z,18.42
2018-09-15T21:53:04.225Z,18.39
2018-09-15T21:55:32.668Z,18.37
2018-09-15T21:58:01.096Z,18.32
2018-09-15T22:00:29.566Z,18.28
2018-09-15T22:02:58.054Z,18.24
2018-09-15T22:05:26.500Z,18.23
2018-09-15T22:07:54.883Z,18.20
2018-09-15T22:10:23.362Z,18.17
2018-09-15T22:12:51.859Z,18.15
2018-09-15T22:15:26.962Z,18.13
2018-09-15T22:17:57.121Z,18.10
2018-09-15T22:20:25.552Z,18.06
2018-09-15T22:22:54.227Z,18.02
2018-09-15T22:25:22.691Z,17.99
2018-09-15T22:27:51.101Z,17.96
2018-09-15T22:30:19.712Z,17.91
2018-09-15T22:32:48.229Z,17.88
2018-09-15T22:35:16.727Z,17.84
2018-09-15T22:37:45.269Z,17.82
2018-09-15T22:40:13.864Z,17.79
2018-09-15T22:42:42.442Z,17.78
2018-09-15T22:45:11.029Z,17.75
2018-09-15T22:47:39.473Z,17.71
2018-09-15T22:50:08.052Z,17.68
2018-09-15T22:52:36.819Z,17.66
2018-09-15T22:55:05.481Z,17.62
2018-09-15T22:57:34.514Z,17.59
2018-09-15T23:00:03.075Z,17.56
2018-09-15T23:02:31.680Z,17.54
2018-09-15T23:05:00.208Z,17.51
2018-09-15T23:07:28.859Z,17.48
2018-09-15T23:09:57.377Z,17.46
2018-09-15T23:12:25.920Z,17.44
2018-09-15T23:14:54.384Z,17.42
2018-09-15T23:17:22.966Z,17.40
2018-09-15T23:19:51.391Z,17.39
2018-09-15T23:22:19.857Z,17.38
2018-09-15T23:24:48.517Z,17.37
2018-09-15T23:27:17.114Z,17.34
2018-09-15T23:29:45.813Z,17.32
2018-09-15T23:32:14.318Z,17.30
2018-09-15T23:34:43.060Z,17.27
2018-09-15T23:37:11.572Z,17.21
2018-09-15T23:39:40.088Z,17.19
2018-09-15T23:42:08.816Z,17.18
2018-09-15T23:44:37.301Z,17.18
2018-09-15T23:47:05.798Z,17.16
2018-09-15T23:49:34.294Z,17.14
2018-09-15T23:52:02.837Z,17.11
2018-09-15T23:54:31.406Z,17.08
2018-09-15T23:56:59.895Z,17.07
2018-09-15T23:59:28.471Z,17.03
